sensor_id;sensor_type;location;lat;lon;timestamp;temperature;humidity
19200;DHT22;9732;52.498;5.408;2023-12-29T00:02:13;10.00;99.90
19200;DHT22;9732;52.498;5.408;2023-12-29T00:04:40;10.10;99.90
19200;DHT22;9732;52.498;5.408;2023-12-29T00:07:07;10.10;99.90
19200;DHT22;9732;52.498;5.408;2023-12-29T00:09:34;10.10;99.90
19200;DHT22;9732;52.498;5.408;2023-12-29T00:12:06;10.10;99.90
19200;DHT22;9732;52.498;5.408;2023-12-29T00:14:36;10.20;99.90
19200;DHT22;9732;52.498;5.408;2023-12-29T00:17:04;10.10;99.90
19200;DHT22;9732;52.498;5.408;2023-12-29T00:19:30;10.30;99.90
19200;DHT22;9732;52.498;5.408;2023-12-29T00:21:57;10.10;99.90
19200;DHT22;9732;52.498;5.408;2023-12-29T00:24:25;10.10;99.90
19200;DHT22;9732;52.498;5.408;2023-12-29T00:26:52;10.10;99.90
19200;DHT22;9732;52.498;5.408;2023-12-29T00:29:18;10.30;99.90
19200;DHT22;9732;52.498;5.408;2023-12-29T00:31:46;10.00;99.90
19200;DHT22;9732;52.498;5.408;2023-12-29T00:34:13;10.10;99.90
19200;DHT22;9732;52.498;5.408;2023-12-29T00:36:40;10.20;99.90
19200;DHT22;9732;52.498;5.408;2023-12-29T00:39:07;10.20;99.90
19200;DHT22;9732;52.498;5.408;2023-12-29T00:41:33;10.30;99.90
19200;DHT22;9732;52.498;5.408;2023-12-29T00:44:00;10.20;99.90
19200;DHT22;9732;52.498;5.408;2023-12-29T00:46:27;10.20;99.90
19200;DHT22;9732;52.498;5.408;2023-12-29T00:48:55;10.30;99.90
19200;DHT22;9732;52.498;5.408;2023-12-29T00:51:22;10.10;99.90
19200;DHT22;9732;52.498;5.408;2023-12-29T00:53:49;10.20;99.90
19200;DHT22;9732;52.498;5.408;2023-12-29T00:56:18;10.20;99.90
19200;DHT22;9732;52.498;5.408;2023-12-29T00:58:46;10.20;99.90
19200;DHT22;9732;52.498;5.408;2023-12-29T01:01:13;10.10;99.90
19200;DHT22;9732;52.498;5.408;2023-12-29T01:03:40;10.20;99.90
19200;DHT22;9732;52.498;5.408;2023-12-29T01:06:09;10.00;99.90
19200;DHT22;9732;52.498;5.408;2023-12-29T01:08:35;10.00;99.90
19200;DHT22;9732;52.498;5.408;2023-12-29T01:11:03;10.00;99.90
19200;DHT22;9732;52.498;5.408;2023-12-29T01:13:33;10.00;99.90
19200;DHT22;9732;52.498;5.408;2023-12-29T01:16:02;10.00;99.90
19200;DHT22;9732;52.498;5.408;2023-12-29T01:18:29;10.00;99.90
19200;DHT22;9732;52.498;5.408;2023-12-29T01:20:56;10.10;99.90
19200;DHT22;9732;52.498;5.408;2023-12-29T01:23:24;10.10;99.90
19200;DHT22;9732;52.498;5.408;2023-12-29T01:25:52;10.10;99.90
19200;DHT22;9732;52.498;5.408;2023-12-29T01:28:20;10.00;99.90
19200;DHT22;9732;52.498;5.408;2023-12-29T01:30:48;10.00;99.90
19200;DHT22;9732;52.498;5.408;2023-12-29T01:33:14;10.10;99.90
19200;DHT22;9732;52.498;5.408;2023-12-29T01:35:41;10.10;99.90
19200;DHT22;9732;52.498;5.408;2023-12-29T01:38:08;10.10;99.90
19200;DHT22;9732;52.498;5.408;2023-12-29T01:40:43;10.20;99.90
19200;DHT22;9732;52.498;5.408;2023-12-29T01:43:11;10.20;99.90
19200;DHT22;9732;52.498;5.408;2023-12-29T01:45:37;10.20;99.90
19200;DHT22;9732;52.498;5.408;2023-12-29T01:48:07;10.30;99.90
19200;DHT22;9732;52.498;5.408;2023-12-29T01:50:35;10.30;99.90
19200;DHT22;9732;52.498;5.408;2023-12-29T01:53:02;10.30;99.90
19200;DHT22;9732;52.498;5.408;2023-12-29T01:55:31;10.30;99.90
19200;DHT22;9732;52.498;5.408;2023-12-29T01:58:03;10.40;99.90
19200;DHT22;9732;52.498;5.408;2023-12-29T02:00:30;10.40;99.90
19200;DHT22;9732;52.498;5.408;2023-12-29T02:02:57;10.40;99.90
19200;DHT22;9732;52.498;5.408;2023-12-29T02:05:25;10.50;99.90
19200;DHT22;9732;52.498;5.408;2023-12-29T02:07:53;10.50;99.90
19200;DHT22;9732;52.498;5.408;2023-12-29T02:10:20;10.50;99.90
19200;DHT22;9732;52.498;5.408;2023-12-29T02:12:50;10.50;99.90
19200;DHT22;9732;52.498;5.408;2023-12-29T02:15:20;10.50;99.90
19200;DHT22;9732;52.498;5.408;2023-12-29T02:17:51;10.50;99.90
19200;DHT22;9732;52.498;5.408;2023-12-29T02:20:19;10.50;99.90
19200;DHT22;9732;52.498;5.408;2023-12-29T02:22:46;10.50;99.90
19200;DHT22;9732;52.498;5.408;2023-12-29T02:25:14;10.50;99.90
19200;DHT22;9732;52.498;5.408;2023-12-29T02:27:49;10.50;99.90
19200;DHT22;9732;52.498;5.408;2023-12-29T02:30:22;10.50;99.90
19200;DHT22;9732;52.498;5.408;2023-12-29T02:32:54;10.50;99.90
19200;DHT22;9732;52.498;5.408;2023-12-29T02:35:25;10.50;99.90
19200;DHT22;9732;52.498;5.408;2023-12-29T02:37:53;10.40;99.90
19200;DHT22;9732;52.498;5.408;2023-12-29T02:40:21;10.50;99.90
19200;DHT22;9732;52.498;5.408;2023-12-29T02:42:49;10.50;99.90
19200;DHT22;9732;52.498;5.408;2023-12-29T02:45:16;10.50;99.90
19200;DHT22;9732;52.498;5.408;2023-12-29T02:47:44;10.50;99.90
19200;DHT22;9732;52.498;5.408;2023-12-29T02:50:11;10.40;99.90
19200;DHT22;9732;52.498;5.408;2023-12-29T02:52:38;10.40;99.90
19200;DHT22;9732;52.498;5.408;2023-12-29T02:55:05;10.40;99.90
19200;DHT22;9732;52.498;5.408;2023-12-29T02:57:33;10.40;99.90
19200;DHT22;9732;52.498;5.408;2023-12-29T03:00:00;10.40;99.90
19200;DHT22;9732;52.498;5.408;2023-12-29T03:02:27;10.40;99.90
19200;DHT22;9732;52.498;5.408;2023-12-29T03:04:53;10.40;99.90
19200;DHT22;9732;52.498;5.408;2023-12-29T03:07:20;10.30;99.90
19200;DHT22;9732;52.498;5.408;2023-12-29T03:09:47;10.40;99.90
19200;DHT22;9732;52.498;5.408;2023-12-29T03:12:14;10.40;99.90
19200;DHT22;9732;52.498;5.408;2023-12-29T03:14:42;10.40;99.90
19200;DHT22;9732;52.498;5.408;2023-12-29T03:17:09;10.60;99.90
19200;DHT22;9732;52.498;5.408;2023-12-29T03:19:35;10.40;99.90
19200;DHT22;9732;52.498;5.408;2023-12-29T03:22:02;10.50;99.90
19200;DHT22;9732;52.498;5.408;2023-12-29T03:24:29;10.40;99.90
19200;DHT22;9732;52.498;5.408;2023-12-29T03:26:56;10.40;99.90
19200;DHT22;9732;52.498;5.408;2023-12-29T03:29:23;10.50;99.90
19200;DHT22;9732;52.498;5.408;2023-12-29T03:31:51;10.50;99.90
19200;DHT22;9732;52.498;5.408;2023-12-29T03:34:18;10.50;99.90
19200;DHT22;9732;52.498;5.408;2023-12-29T03:36:45;10.50;99.90
19200;DHT22;9732;52.498;5.408;2023-12-29T03:39:12;10.50;99.90
19200;DHT22;9732;52.498;5.408;2023-12-29T03:41:38;10.50;99.90
19200;DHT22;9732;52.498;5.408;2023-12-29T03:44:05;10.50;99.90
19200;DHT22;9732;52.498;5.408;2023-12-29T03:46:32;10.50;99.90
19200;DHT22;9732;52.498;5.408;2023-12-29T03:49:00;10.60;99.90
19200;DHT22;9732;52.498;5.408;2023-12-29T03:51:27;10.60;99.90
19200;DHT22;9732;52.498;5.408;2023-12-29T03:53:54;10.50;99.90
19200;DHT22;9732;52.498;5.408;2023-12-29T03:56:20;10.70;99.90
19200;DHT22;9732;52.498;5.408;2023-12-29T03:58:47;10.70;99.90
19200;DHT22;9732;52.498;5.408;2023-12-29T04:01:15;10.50;99.90
19200;DHT22;9732;52.498;5.408;2023-12-29T04:03:42;10.50;99.90
19200;DHT22;9732;52.498;5.408;2023-12-29T04:06:11;10.60;99.90
19200;DHT22;9732;52.498;5.408;2023-12-29T04:08:38;10.50;99.90
19200;DHT22;9732;52.498;5.408;2023-12-29T04:11:05;10.50;99.90
19200;DHT22;9732;52.498;5.408;2023-12-29T04:13:32;10.50;99.90
19200;DHT22;9732;52.498;5.408;2023-12-29T04:15:59;10.50;99.90
19200;DHT22;9732;52.498;5.408;2023-12-29T04:18:26;10.50;99.90
19200;DHT22;9732;52.498;5.408;2023-12-29T04:20:54;10.50;99.90
19200;DHT22;9732;52.498;5.408;2023-12-29T04:23:22;10.50;99.90
19200;DHT22;9732;52.498;5.408;2023-12-29T04:25:49;10.50;99.90
19200;DHT22;9732;52.498;5.408;2023-12-29T04:28:16;10.50;99.90
19200;DHT22;9732;52.498;5.408;2023-12-29T04:30:43;10.50;99.90
19200;DHT22;9732;52.498;5.408;2023-12-29T04:33:11;10.50;99.90
19200;DHT22;9732;52.498;5.408;2023-12-29T04:35:39;10.50;99.90
19200;DHT22;9732;52.498;5.408;2023-12-29T04:38:06;10.60;99.90
19200;DHT22;9732;52.498;5.408;2023-12-29T04:40:34;10.60;99.90
19200;DHT22;9732;52.498;5.408;2023-12-29T04:43:02;10.60;99.90
19200;DHT22;9732;52.498;5.408;2023-12-29T04:45:30;10.60;99.90
19200;DHT22;9732;52.498;5.408;2023-12-29T04:47:58;10.60;99.90
19200;DHT22;9732;52.498;5.408;2023-12-29T04:50:25;10.50;99.90
19200;DHT22;9732;52.498;5.408;2023-12-29T04:52:52;10.70;99.90
19200;DHT22;9732;52.498;5.408;2023-12-29T04:55:19;10.50;99.90
19200;DHT22;9732;52.498;5.408;2023-12-29T04:57:50;10.40;99.90
19200;DHT22;9732;52.498;5.408;2023-12-29T05:00:17;10.50;99.90
19200;DHT22;9732;52.498;5.408;2023-12-29T05:02:44;10.50;99.90
19200;DHT22;9732;52.498;5.408;2023-12-29T05:05:11;10.50;99.90
19200;DHT22;9732;52.498;5.408;2023-12-29T05:07:40;10.50;99.90
19200;DHT22;9732;52.498;5.408;2023-12-29T05:10:08;10.50;99.90
19200;DHT22;9732;52.498;5.408;2023-12-29T05:12:35;10.50;99.90
19200;DHT22;9732;52.498;5.408;2023-12-29T05:15:04;10.50;99.90
19200;DHT22;9732;52.498;5.408;2023-12-29T05:17:32;10.60;99.90
19200;DHT22;9732;52.498;5.408;2023-12-29T05:20:02;10.60;99.90
19200;DHT22;9732;52.498;5.408;2023-12-29T05:22:29;10.60;99.90
19200;DHT22;9732;52.498;5.408;2023-12-29T05:24:56;10.60;99.90
19200;DHT22;9732;52.498;5.408;2023-12-29T05:27:26;10.80;99.90
19200;DHT22;9732;52.498;5.408;2023-12-29T05:29:53;10.80;99.90
19200;DHT22;9732;52.498;5.408;2023-12-29T05:32:22;10.80;99.90
19200;DHT22;9732;52.498;5.408;2023-12-29T05:34:49;10.80;99.90
19200;DHT22;9732;52.498;5.408;2023-12-29T05:37:16;10.70;99.90
19200;DHT22;9732;52.498;5.408;2023-12-29T05:39:43;10.70;99.90
19200;DHT22;9732;52.498;5.408;2023-12-29T05:42:13;10.70;99.90
19200;DHT22;9732;52.498;5.408;2023-12-29T05:44:39;10.70;99.90
19200;DHT22;9732;52.498;5.408;2023-12-29T05:47:06;10.70;99.90
19200;DHT22;9732;52.498;5.408;2023-12-29T05:49:35;10.80;99.90
19200;DHT22;9732;52.498;5.408;2023-12-29T05:52:07;10.80;99.90
19200;DHT22;9732;52.498;5.408;2023-12-29T05:54:34;10.80;99.90
19200;DHT22;9732;52.498;5.408;2023-12-29T05:57:02;10.80;99.90
19200;DHT22;9732;52.498;5.408;2023-12-29T05:59:29;10.80;99.90
19200;DHT22;9732;52.498;5.408;2023-12-29T06:01:57;10.80;99.90
19200;DHT22;9732;52.498;5.408;2023-12-29T06:04:25;10.80;99.90
19200;DHT22;9732;52.498;5.408;2023-12-29T06:06:54;10.80;99.90
19200;DHT22;9732;52.498;5.408;2023-12-29T06:09:21;10.80;99.90
19200;DHT22;9732;52.498;5.408;2023-12-29T06:11:49;10.80;99.90
19200;DHT22;9732;52.498;5.408;2023-12-29T06:14:17;10.80;99.90
19200;DHT22;9732;52.498;5.408;2023-12-29T06:16:44;10.80;99.90
19200;DHT22;9732;52.498;5.408;2023-12-29T06:19:11;10.70;99.90
19200;DHT22;9732;52.498;5.408;2023-12-29T06:21:41;10.80;99.90
19200;DHT22;9732;52.498;5.408;2023-12-29T06:24:12;10.80;99.90
19200;DHT22;9732;52.498;5.408;2023-12-29T06:26:41;10.80;99.90
19200;DHT22;9732;52.498;5.408;2023-12-29T06:29:10;10.80;99.90
19200;DHT22;9732;52.498;5.408;2023-12-29T06:31:40;10.80;99.90
19200;DHT22;9732;52.498;5.408;2023-12-29T06:34:09;10.80;99.90
19200;DHT22;9732;52.498;5.408;2023-12-29T06:36:36;10.90;99.90
19200;DHT22;9732;52.498;5.408;2023-12-29T06:39:03;10.90;99.90
19200;DHT22;9732;52.498;5.408;2023-12-29T06:41:31;10.90;99.90
19200;DHT22;9732;52.498;5.408;2023-12-29T06:43:59;10.90;99.90
19200;DHT22;9732;52.498;5.408;2023-12-29T06:46:27;11.00;99.90
19200;DHT22;9732;52.498;5.408;2023-12-29T06:48:54;11.00;99.90
19200;DHT22;9732;52.498;5.408;2023-12-29T06:51:24;11.00;99.90
19200;DHT22;9732;52.498;5.408;2023-12-29T06:53:51;11.00;99.90
19200;DHT22;9732;52.498;5.408;2023-12-29T06:56:19;11.00;99.90
19200;DHT22;9732;52.498;5.408;2023-12-29T06:58:47;11.00;99.90
19200;DHT22;9732;52.498;5.408;2023-12-29T07:01:14;11.00;99.90
19200;DHT22;9732;52.498;5.408;2023-12-29T07:03:42;11.00;99.90
19200;DHT22;9732;52.498;5.408;2023-12-29T07:06:10;11.00;99.90
19200;DHT22;9732;52.498;5.408;2023-12-29T07:08:37;11.00;99.90
19200;DHT22;9732;52.498;5.408;2023-12-29T07:11:09;11.00;99.90
19200;DHT22;9732;52.498;5.408;2023-12-29T07:13:36;11.00;99.90
19200;DHT22;9732;52.498;5.408;2023-12-29T07:16:05;11.00;99.90
19200;DHT22;9732;52.498;5.408;2023-12-29T07:18:35;11.00;99.90
19200;DHT22;9732;52.498;5.408;2023-12-29T07:21:02;11.00;99.90
19200;DHT22;9732;52.498;5.408;2023-12-29T07:23:29;11.00;99.90
19200;DHT22;9732;52.498;5.408;2023-12-29T07:25:57;11.00;99.90
19200;DHT22;9732;52.498;5.408;2023-12-29T07:28:25;11.00;99.90
19200;DHT22;9732;52.498;5.408;2023-12-29T07:30:53;10.90;99.90
19200;DHT22;9732;52.498;5.408;2023-12-29T07:33:22;10.90;99.90
19200;DHT22;9732;52.498;5.408;2023-12-29T07:35:49;10.90;99.90
19200;DHT22;9732;52.498;5.408;2023-12-29T07:38:17;10.90;99.90
19200;DHT22;9732;52.498;5.408;2023-12-29T07:40:46;10.90;99.90
19200;DHT22;9732;52.498;5.408;2023-12-29T07:43:13;10.80;99.90
19200;DHT22;9732;52.498;5.408;2023-12-29T07:45:40;10.80;99.90
19200;DHT22;9732;52.498;5.408;2023-12-29T07:48:09;10.80;99.90
19200;DHT22;9732;52.498;5.408;2023-12-29T07:50:40;10.70;99.90
19200;DHT22;9732;52.498;5.408;2023-12-29T07:53:07;10.80;99.90
19200;DHT22;9732;52.498;5.408;2023-12-29T07:55:37;10.70;99.90
19200;DHT22;9732;52.498;5.408;2023-12-29T07:58:05;10.70;99.90
19200;DHT22;9732;52.498;5.408;2023-12-29T08:00:36;10.80;99.90
19200;DHT22;9732;52.498;5.408;2023-12-29T08:03:04;10.70;99.90
19200;DHT22;9732;52.498;5.408;2023-12-29T08:05:33;10.70;99.90
19200;DHT22;9732;52.498;5.408;2023-12-29T08:08:06;10.70;99.90
19200;DHT22;9732;52.498;5.408;2023-12-29T08:10:32;10.70;99.90
19200;DHT22;9732;52.498;5.408;2023-12-29T08:12:59;10.90;99.90
19200;DHT22;9732;52.498;5.408;2023-12-29T08:15:26;10.70;99.90
19200;DHT22;9732;52.498;5.408;2023-12-29T08:17:53;10.80;99.90
19200;DHT22;9732;52.498;5.408;2023-12-29T08:20:23;10.70;99.90
19200;DHT22;9732;52.498;5.408;2023-12-29T08:22:50;10.70;99.90
19200;DHT22;9732;52.498;5.408;2023-12-29T08:25:18;10.70;99.90
19200;DHT22;9732;52.498;5.408;2023-12-29T08:27:45;10.70;99.90
19200;DHT22;9732;52.498;5.408;2023-12-29T08:30:13;10.90;99.90
19200;DHT22;9732;52.498;5.408;2023-12-29T08:32:41;10.80;99.90
19200;DHT22;9732;52.498;5.408;2023-12-29T08:35:10;10.80;99.90
19200;DHT22;9732;52.498;5.408;2023-12-29T08:37:37;10.80;99.90
19200;DHT22;9732;52.498;5.408;2023-12-29T08:40:05;11.00;99.90
19200;DHT22;9732;52.498;5.408;2023-12-29T08:42:35;10.80;99.90
19200;DHT22;9732;52.498;5.408;2023-12-29T08:45:03;10.90;99.90
19200;DHT22;9732;52.498;5.408;2023-12-29T08:47:30;10.80;99.90
19200;DHT22;9732;52.498;5.408;2023-12-29T08:49:57;10.70;99.90
19200;DHT22;9732;52.498;5.408;2023-12-29T08:52:27;10.70;99.90
19200;DHT22;9732;52.498;5.408;2023-12-29T08:54:55;10.70;99.90
19200;DHT22;9732;52.498;5.408;2023-12-29T08:57:22;10.80;99.90
19200;DHT22;9732;52.498;5.408;2023-12-29T08:59:50;10.80;99.90
19200;DHT22;9732;52.498;5.408;2023-12-29T09:02:17;11.00;99.90
19200;DHT22;9732;52.498;5.408;2023-12-29T09:04:45;10.70;99.90
19200;DHT22;9732;52.498;5.408;2023-12-29T09:07:13;10.70;99.90
19200;DHT22;9732;52.498;5.408;2023-12-29T09:09:40;10.70;99.90
19200;DHT22;9732;52.498;5.408;2023-12-29T09:12:07;10.60;99.90
19200;DHT22;9732;52.498;5.408;2023-12-29T09:14:34;10.60;99.90
19200;DHT22;9732;52.498;5.408;2023-12-29T09:17:03;10.60;99.90
19200;DHT22;9732;52.498;5.408;2023-12-29T09:19:31;10.60;99.90
19200;DHT22;9732;52.498;5.408;2023-12-29T09:21:58;10.70;99.90
19200;DHT22;9732;52.498;5.408;2023-12-29T09:24:25;10.60;99.90
19200;DHT22;9732;52.498;5.408;2023-12-29T09:26:52;10.60;99.90
19200;DHT22;9732;52.498;5.408;2023-12-29T09:29:19;10.50;99.90
19200;DHT22;9732;52.498;5.408;2023-12-29T09:31:51;10.50;99.90
19200;DHT22;9732;52.498;5.408;2023-12-29T09:34:19;10.50;99.90
19200;DHT22;9732;52.498;5.408;2023-12-29T09:36:46;10.50;99.90
19200;DHT22;9732;52.498;5.408;2023-12-29T09:39:13;10.60;99.90
19200;DHT22;9732;52.498;5.408;2023-12-29T09:41:44;10.60;99.90
19200;DHT22;9732;52.498;5.408;2023-12-29T09:44:13;10.60;99.90
19200;DHT22;9732;52.498;5.408;2023-12-29T09:46:41;10.70;99.90
19200;DHT22;9732;52.498;5.408;2023-12-29T09:49:09;10.90;99.90
19200;DHT22;9732;52.498;5.408;2023-12-29T09:51:37;10.80;99.90
19200;DHT22;9732;52.498;5.408;2023-12-29T09:54:04;10.90;99.90
19200;DHT22;9732;52.498;5.408;2023-12-29T09:56:32;10.90;99.90
19200;DHT22;9732;52.498;5.408;2023-12-29T09:58:59;10.80;99.90
19200;DHT22;9732;52.498;5.408;2023-12-29T10:01:27;10.80;99.90
19200;DHT22;9732;52.498;5.408;2023-12-29T10:03:56;10.70;99.90
19200;DHT22;9732;52.498;5.408;2023-12-29T10:06:24;10.70;99.90
19200;DHT22;9732;52.498;5.408;2023-12-29T10:08:53;10.60;99.90
19200;DHT22;9732;52.498;5.408;2023-12-29T10:11:21;10.50;99.90
19200;DHT22;9732;52.498;5.408;2023-12-29T10:13:50;10.50;99.90
19200;DHT22;9732;52.498;5.408;2023-12-29T10:16:24;10.60;99.90
19200;DHT22;9732;52.498;5.408;2023-12-29T10:19:00;10.60;99.90
19200;DHT22;9732;52.498;5.408;2023-12-29T10:21:36;10.60;99.90
19200;DHT22;9732;52.498;5.408;2023-12-29T10:24:12;10.60;99.90
19200;DHT22;9732;52.498;5.408;2023-12-29T10:26:42;10.60;99.90
19200;DHT22;9732;52.498;5.408;2023-12-29T10:29:10;10.60;99.90
19200;DHT22;9732;52.498;5.408;2023-12-29T10:31:38;10.60;99.90
19200;DHT22;9732;52.498;5.408;2023-12-29T10:34:17;10.80;99.90
19200;DHT22;9732;52.498;5.408;2023-12-29T10:36:48;10.70;99.90
19200;DHT22;9732;52.498;5.408;2023-12-29T10:39:16;10.80;99.90
19200;DHT22;9732;52.498;5.408;2023-12-29T10:41:43;10.90;99.90
19200;DHT22;9732;52.498;5.408;2023-12-29T10:44:10;10.80;99.90
19200;DHT22;9732;52.498;5.408;2023-12-29T10:46:37;10.90;99.90
19200;DHT22;9732;52.498;5.408;2023-12-29T10:49:07;10.80;99.90
19200;DHT22;9732;52.498;5.408;2023-12-29T10:51:34;10.80;99.90
19200;DHT22;9732;52.498;5.408;2023-12-29T10:54:01;10.90;99.90
19200;DHT22;9732;52.498;5.408;2023-12-29T10:56:29;10.80;99.90
19200;DHT22;9732;52.498;5.408;2023-12-29T10:59:00;10.80;99.90
19200;DHT22;9732;52.498;5.408;2023-12-29T11:01:28;10.80;99.90
19200;DHT22;9732;52.498;5.408;2023-12-29T11:03:59;10.90;99.90
19200;DHT22;9732;52.498;5.408;2023-12-29T11:06:27;10.80;99.90
19200;DHT22;9732;52.498;5.408;2023-12-29T11:08:54;10.80;99.90
19200;DHT22;9732;52.498;5.408;2023-12-29T11:11:21;10.80;99.90
19200;DHT22;9732;52.498;5.408;2023-12-29T11:13:50;10.80;99.90
19200;DHT22;9732;52.498;5.408;2023-12-29T11:16:17;10.80;99.90
19200;DHT22;9732;52.498;5.408;2023-12-29T11:18:47;10.90;99.90
19200;DHT22;9732;52.498;5.408;2023-12-29T11:21:16;10.90;99.90
19200;DHT22;9732;52.498;5.408;2023-12-29T11:23:43;10.90;99.90
19200;DHT22;9732;52.498;5.408;2023-12-29T11:26:10;10.90;99.90
19200;DHT22;9732;52.498;5.408;2023-12-29T11:28:37;11.00;99.90
19200;DHT22;9732;52.498;5.408;2023-12-29T11:31:06;11.00;99.90
19200;DHT22;9732;52.498;5.408;2023-12-29T11:33:38;11.00;99.90
19200;DHT22;9732;52.498;5.408;2023-12-29T11:36:10;10.90;99.90
19200;DHT22;9732;52.498;5.408;2023-12-29T11:38:47;10.90;99.90
19200;DHT22;9732;52.498;5.408;2023-12-29T11:41:20;10.90;99.90
19200;DHT22;9732;52.498;5.408;2023-12-29T11:43:56;11.00;99.90
19200;DHT22;9732;52.498;5.408;2023-12-29T11:46:38;10.90;99.90
19200;DHT22;9732;52.498;5.408;2023-12-29T11:49:05;10.90;99.90
19200;DHT22;9732;52.498;5.408;2023-12-29T11:51:33;10.90;99.90
19200;DHT22;9732;52.498;5.408;2023-12-29T11:54:02;10.90;99.90
19200;DHT22;9732;52.498;5.408;2023-12-29T11:56:36;10.90;99.90
19200;DHT22;9732;52.498;5.408;2023-12-29T11:59:14;10.80;99.90
19200;DHT22;9732;52.498;5.408;2023-12-29T12:01:42;10.90;99.90
19200;DHT22;9732;52.498;5.408;2023-12-29T12:04:38;10.70;99.90
19200;DHT22;9732;52.498;5.408;2023-12-29T12:07:07;10.80;99.90
19200;DHT22;9732;52.498;5.408;2023-12-29T12:09:34;10.90;99.90
19200;DHT22;9732;52.498;5.408;2023-12-29T12:12:01;10.90;99.90
19200;DHT22;9732;52.498;5.408;2023-12-29T12:14:45;10.80;99.90
19200;DHT22;9732;52.498;5.408;2023-12-29T12:17:26;10.90;99.90
19200;DHT22;9732;52.498;5.408;2023-12-29T12:19:57;10.90;99.90
19200;DHT22;9732;52.498;5.408;2023-12-29T12:22:24;11.00;99.90
19200;DHT22;9732;52.498;5.408;2023-12-29T12:24:55;10.80;99.90
19200;DHT22;9732;52.498;5.408;2023-12-29T12:27:22;10.80;99.90
19200;DHT22;9732;52.498;5.408;2023-12-29T12:29:53;10.70;99.90
19200;DHT22;9732;52.498;5.408;2023-12-29T12:32:24;10.90;99.90
19200;DHT22;9732;52.498;5.408;2023-12-29T12:34:51;10.80;99.90
19200;DHT22;9732;52.498;5.408;2023-12-29T12:37:22;10.70;99.90
19200;DHT22;9732;52.498;5.408;2023-12-29T12:39:49;10.70;99.90
19200;DHT22;9732;52.498;5.408;2023-12-29T12:42:16;10.70;99.90
19200;DHT22;9732;52.498;5.408;2023-12-29T12:44:48;10.80;99.90
19200;DHT22;9732;52.498;5.408;2023-12-29T12:47:22;11.00;99.90
19200;DHT22;9732;52.498;5.408;2023-12-29T12:49:52;10.80;99.90
19200;DHT22;9732;52.498;5.408;2023-12-29T12:52:19;10.90;99.90
19200;DHT22;9732;52.498;5.408;2023-12-29T12:54:47;10.90;99.90
19200;DHT22;9732;52.498;5.408;2023-12-29T12:57:18;11.00;99.90
19200;DHT22;9732;52.498;5.408;2023-12-29T12:59:45;10.90;99.90
19200;DHT22;9732;52.498;5.408;2023-12-29T13:02:12;11.00;99.90
19200;DHT22;9732;52.498;5.408;2023-12-29T13:04:40;11.10;99.90
19200;DHT22;9732;52.498;5.408;2023-12-29T13:07:08;11.10;99.90
19200;DHT22;9732;52.498;5.408;2023-12-29T13:09:36;11.00;99.90
19200;DHT22;9732;52.498;5.408;2023-12-29T13:12:08;10.90;99.90
19200;DHT22;9732;52.498;5.408;2023-12-29T13:14:35;10.90;99.90
19200;DHT22;9732;52.498;5.408;2023-12-29T13:17:06;10.90;99.90
19200;DHT22;9732;52.498;5.408;2023-12-29T13:19:33;10.90;99.90
19200;DHT22;9732;52.498;5.408;2023-12-29T13:22:00;11.00;99.90
19200;DHT22;9732;52.498;5.408;2023-12-29T13:24:29;10.90;99.90
19200;DHT22;9732;52.498;5.408;2023-12-29T13:27:02;10.80;99.90
19200;DHT22;9732;52.498;5.408;2023-12-29T13:29:30;10.70;99.90
19200;DHT22;9732;52.498;5.408;2023-12-29T13:32:00;10.70;99.90
19200;DHT22;9732;52.498;5.408;2023-12-29T13:34:33;10.70;99.90
19200;DHT22;9732;52.498;5.408;2023-12-29T13:37:08;10.70;99.90
19200;DHT22;9732;52.498;5.408;2023-12-29T13:39:40;10.70;99.90
19200;DHT22;9732;52.498;5.408;2023-12-29T13:42:10;10.80;99.90
19200;DHT22;9732;52.498;5.408;2023-12-29T13:44:39;10.80;99.90
19200;DHT22;9732;52.498;5.408;2023-12-29T13:47:06;10.90;99.90
19200;DHT22;9732;52.498;5.408;2023-12-29T13:49:33;10.90;99.90
19200;DHT22;9732;52.498;5.408;2023-12-29T13:52:02;11.20;99.90
19200;DHT22;9732;52.498;5.408;2023-12-29T13:54:29;10.90;99.90
19200;DHT22;9732;52.498;5.408;2023-12-29T13:56:57;10.80;99.90
19200;DHT22;9732;52.498;5.408;2023-12-29T13:59:30;10.80;99.90
19200;DHT22;9732;52.498;5.408;2023-12-29T14:01:59;10.80;99.90
19200;DHT22;9732;52.498;5.408;2023-12-29T14:04:29;10.80;99.90
19200;DHT22;9732;52.498;5.408;2023-12-29T14:07:00;10.70;99.90
19200;DHT22;9732;52.498;5.408;2023-12-29T14:09:27;10.70;99.90
19200;DHT22;9732;52.498;5.408;2023-12-29T14:11:56;10.70;99.90
19200;DHT22;9732;52.498;5.408;2023-12-29T14:14:23;10.70;99.90
19200;DHT22;9732;52.498;5.408;2023-12-29T14:16:50;10.60;99.90
19200;DHT22;9732;52.498;5.408;2023-12-29T14:19:17;10.70;99.90
19200;DHT22;9732;52.498;5.408;2023-12-29T14:21:49;10.50;99.90
19200;DHT22;9732;52.498;5.408;2023-12-29T14:24:17;10.60;99.90
19200;DHT22;9732;52.498;5.408;2023-12-29T14:26:53;10.50;99.90
19200;DHT22;9732;52.498;5.408;2023-12-29T14:29:23;10.60;99.90
19200;DHT22;9732;52.498;5.408;2023-12-29T14:31:51;10.60;99.90
19200;DHT22;9732;52.498;5.408;2023-12-29T14:34:27;10.60;99.90
19200;DHT22;9732;52.498;5.408;2023-12-29T14:36:54;10.50;99.90
19200;DHT22;9732;52.498;5.408;2023-12-29T14:39:21;10.50;99.90
19200;DHT22;9732;52.498;5.408;2023-12-29T14:41:49;10.60;99.90
19200;DHT22;9732;52.498;5.408;2023-12-29T14:44:18;10.40;99.90
19200;DHT22;9732;52.498;5.408;2023-12-29T14:46:47;10.40;99.90
19200;DHT22;9732;52.498;5.408;2023-12-29T14:49:14;10.20;99.90
19200;DHT22;9732;52.498;5.408;2023-12-29T14:51:43;10.20;99.90
19200;DHT22;9732;52.498;5.408;2023-12-29T14:54:10;10.20;99.90
19200;DHT22;9732;52.498;5.408;2023-12-29T14:56:36;10.10;99.90
19200;DHT22;9732;52.498;5.408;2023-12-29T14:59:03;10.00;99.90
19200;DHT22;9732;52.498;5.408;2023-12-29T15:01:30;9.80;99.90
19200;DHT22;9732;52.498;5.408;2023-12-29T15:03:58;9.60;99.90
19200;DHT22;9732;52.498;5.408;2023-12-29T15:06:24;9.50;99.90
19200;DHT22;9732;52.498;5.408;2023-12-29T15:08:51;9.40;99.90
19200;DHT22;9732;52.498;5.408;2023-12-29T15:11:18;9.40;99.90
19200;DHT22;9732;52.498;5.408;2023-12-29T15:13:45;9.40;99.90
19200;DHT22;9732;52.498;5.408;2023-12-29T15:16:12;9.40;99.90
19200;DHT22;9732;52.498;5.408;2023-12-29T15:18:38;9.40;99.90
19200;DHT22;9732;52.498;5.408;2023-12-29T15:21:06;9.50;99.90
19200;DHT22;9732;52.498;5.408;2023-12-29T15:23:33;9.30;99.90
19200;DHT22;9732;52.498;5.408;2023-12-29T15:26:00;9.30;99.90
19200;DHT22;9732;52.498;5.408;2023-12-29T15:28:26;9.40;99.90
19200;DHT22;9732;52.498;5.408;2023-12-29T15:30:53;9.50;99.90
19200;DHT22;9732;52.498;5.408;2023-12-29T15:33:20;9.50;99.90
19200;DHT22;9732;52.498;5.408;2023-12-29T15:35:47;9.50;99.90
19200;DHT22;9732;52.498;5.408;2023-12-29T15:38:15;9.50;99.90
19200;DHT22;9732;52.498;5.408;2023-12-29T15:40:42;9.60;99.90
19200;DHT22;9732;52.498;5.408;2023-12-29T15:43:08;9.60;99.90
19200;DHT22;9732;52.498;5.408;2023-12-29T15:45:35;9.60;99.90
19200;DHT22;9732;52.498;5.408;2023-12-29T15:48:02;9.60;99.90
19200;DHT22;9732;52.498;5.408;2023-12-29T15:50:29;9.60;99.90
19200;DHT22;9732;52.498;5.408;2023-12-29T15:52:56;9.60;99.90
19200;DHT22;9732;52.498;5.408;2023-12-29T15:55:24;9.60;99.90